sensor_id;sensor_type;location;lat;lon;timestamp;pressure;altitude;pressure_sealevel;temperature;humidity
62926;BME280;55732;52.248;-0.844;2023-06-14T00:02:11;100931.27;;;13.91;60.40
62926;BME280;55732;52.248;-0.844;2023-06-14T00:04:36;100936.27;;;13.86;60.61
62926;BME280;55732;52.248;-0.844;2023-06-14T00:07:04;100934.73;;;13.80;61.42
62926;BME280;55732;52.248;-0.844;2023-06-14T00:09:29;100937.96;;;13.74;61.45
62926;BME280;55732;52.248;-0.844;2023-06-14T00:11:55;100942.26;;;13.69;61.46
62926;BME280;55732;52.248;-0.844;2023-06-14T00:14:20;100942.29;;;13.65;61.74
62926;BME280;55732;52.248;-0.844;2023-06-14T00:16:45;100941.06;;;13.64;61.77
62926;BME280;55732;52.248;-0.844;2023-06-14T00:19:11;100940.35;;;13.63;61.95
62926;BME280;55732;52.248;-0.844;2023-06-14T00:21:37;100937.52;;;13.61;61.89
62926;BME280;55732;52.248;-0.844;2023-06-14T00:24:03;100939.65;;;13.61;61.81
62926;BME280;55732;52.248;-0.844;2023-06-14T00:26:29;100940.89;;;13.61;61.87
62926;BME280;55732;52.248;-0.844;2023-06-14T00:28:55;100939.66;;;13.60;62.35
62926;BME280;55732;52.248;-0.844;2023-06-14T00:31:22;100948.88;;;13.58;62.42
62926;BME280;55732;52.248;-0.844;2023-06-14T00:33:48;100945.90;;;13.55;62.48
62926;BME280;55732;52.248;-0.844;2023-06-14T00:36:13;100944.52;;;13.52;62.58
62926;BME280;55732;52.248;-0.844;2023-06-14T00:38:39;100942.39;;;13.53;62.69
62926;BME280;55732;52.248;-0.844;2023-06-14T00:41:04;100940.44;;;13.52;62.82
62926;BME280;55732;52.248;-0.844;2023-06-14T00:43:29;100940.80;;;13.51;62.81
62926;BME280;55732;52.248;-0.844;2023-06-14T00:45:55;100931.11;;;13.46;62.96
62926;BME280;55732;52.248;-0.844;2023-06-14T00:48:20;100934.64;;;13.47;63.09
62926;BME280;55732;52.248;-0.844;2023-06-14T00:50:47;100940.69;;;13.43;63.32
62926;BME280;55732;52.248;-0.844;2023-06-14T00:53:17;100940.89;;;13.39;63.98
62926;BME280;55732;52.248;-0.844;2023-06-14T00:55:43;100940.77;;;13.32;64.37
62926;BME280;55732;52.248;-0.844;2023-06-14T00:58:09;100943.61;;;13.28;64.52
62926;BME280;55732;52.248;-0.844;2023-06-14T01:00:35;100944.86;;;13.25;64.69
62926;BME280;55732;52.248;-0.844;2023-06-14T01:03:01;100940.84;;;13.20;64.88
62926;BME280;55732;52.248;-0.844;2023-06-14T01:05:26;100940.67;;;13.17;65.23
62926;BME280;55732;52.248;-0.844;2023-06-14T01:10:56;100941.75;;;13.11;66.23
62926;BME280;55732;52.248;-0.844;2023-06-14T01:13:34;100934.70;;;13.08;66.54
62926;BME280;55732;52.248;-0.844;2023-06-14T01:16:01;100933.46;;;13.05;67.37
62926;BME280;55732;52.248;-0.844;2023-06-14T01:18:30;100929.43;;;12.99;68.12
62926;BME280;55732;52.248;-0.844;2023-06-14T01:20:57;100929.65;;;12.93;68.65
62926;BME280;55732;52.248;-0.844;2023-06-14T01:23:23;100928.10;;;12.86;69.48
62926;BME280;55732;52.248;-0.844;2023-06-14T01:25:50;100930.95;;;12.80;69.63
62926;BME280;55732;52.248;-0.844;2023-06-14T01:28:20;100931.16;;;12.74;70.58
62926;BME280;55732;52.248;-0.844;2023-06-14T01:30:52;100936.30;;;12.70;70.17
62926;BME280;55732;52.248;-0.844;2023-06-14T01:33:20;100937.54;;;12.70;70.37
62926;BME280;55732;52.248;-0.844;2023-06-14T01:35:50;100936.30;;;12.69;70.90
62926;BME280;55732;52.248;-0.844;2023-06-14T01:38:18;100930.83;;;12.68;70.91
62926;BME280;55732;52.248;-0.844;2023-06-14T01:40:44;100928.35;;;12.67;70.88
62926;BME280;55732;52.248;-0.844;2023-06-14T01:43:13;100924.29;;;12.67;71.78
62926;BME280;55732;52.248;-0.844;2023-06-14T01:45:40;100923.41;;;12.66;71.52
62926;BME280;55732;52.248;-0.844;2023-06-14T01:48:05;100919.00;;;12.65;72.27
62926;BME280;55732;52.248;-0.844;2023-06-14T01:50:31;100916.71;;;12.63;72.77
62926;BME280;55732;52.248;-0.844;2023-06-14T01:52:57;100917.45;;;12.60;73.29
62926;BME280;55732;52.248;-0.844;2023-06-14T01:55:23;100917.45;;;12.57;73.09
62926;BME280;55732;52.248;-0.844;2023-06-14T01:57:50;100914.45;;;12.57;73.27
62926;BME280;55732;52.248;-0.844;2023-06-14T02:00:16;100917.45;;;12.57;72.66
62926;BME280;55732;52.248;-0.844;2023-06-14T02:02:43;100913.02;;;12.60;72.51
62926;BME280;55732;52.248;-0.844;2023-06-14T02:05:09;100915.13;;;12.62;72.28
62926;BME280;55732;52.248;-0.844;2023-06-14T02:07:35;100909.11;;;12.65;72.19
62926;BME280;55732;52.248;-0.844;2023-06-14T02:10:01;100910.69;;;12.68;72.14
62926;BME280;55732;52.248;-0.844;2023-06-14T02:12:27;100909.10;;;12.67;72.60
62926;BME280;55732;52.248;-0.844;2023-06-14T02:14:52;100908.92;;;12.65;72.65
62926;BME280;55732;52.248;-0.844;2023-06-14T02:17:17;100907.20;;;12.61;73.03
62926;BME280;55732;52.248;-0.844;2023-06-14T02:19:43;100910.91;;;12.59;72.62
62926;BME280;55732;52.248;-0.844;2023-06-14T02:22:09;100911.98;;;12.58;72.93
62926;BME280;55732;52.248;-0.844;2023-06-14T02:24:34;100905.43;;;12.56;73.28
62926;BME280;55732;52.248;-0.844;2023-06-14T02:27:01;100907.21;;;12.52;73.17
62926;BME280;55732;52.248;-0.844;2023-06-14T02:29:27;100906.36;;;12.50;73.44
62926;BME280;55732;52.248;-0.844;2023-06-14T02:31:52;100904.60;;;12.47;73.25
62926;BME280;55732;52.248;-0.844;2023-06-14T02:34:18;100906.54;;;12.48;73.18
62926;BME280;55732;52.248;-0.844;2023-06-14T02:36:45;100904.07;;;12.48;73.01
62926;BME280;55732;52.248;-0.844;2023-06-14T02:39:11;100905.48;;;12.48;73.05
62926;BME280;55732;52.248;-0.844;2023-06-14T02:41:36;100907.95;;;12.50;72.73
62926;BME280;55732;52.248;-0.844;2023-06-14T02:44:02;100910.75;;;12.51;72.91
62926;BME280;55732;52.248;-0.844;2023-06-14T02:46:28;100908.46;;;12.51;72.89
62926;BME280;55732;52.248;-0.844;2023-06-14T02:48:53;100903.15;;;12.52;72.58
62926;BME280;55732;52.248;-0.844;2023-06-14T02:51:18;100907.73;;;12.53;72.67
62926;BME280;55732;52.248;-0.844;2023-06-14T02:53:44;100908.27;;;12.56;72.60
62926;BME280;55732;52.248;-0.844;2023-06-14T02:56:10;100908.98;;;12.57;72.49
62926;BME280;55732;52.248;-0.844;2023-06-14T02:58:37;100901.90;;;12.57;72.33
62926;BME280;55732;52.248;-0.844;2023-06-14T03:01:04;100897.66;;;12.59;72.42
62926;BME280;55732;52.248;-0.844;2023-06-14T03:03:30;100897.84;;;12.58;72.48
62926;BME280;55732;52.248;-0.844;2023-06-14T03:05:56;100901.20;;;12.56;72.62
62926;BME280;55732;52.248;-0.844;2023-06-14T03:08:22;100900.85;;;12.55;72.56
62926;BME280;55732;52.248;-0.844;2023-06-14T03:10:52;100900.15;;;12.52;72.74
62926;BME280;55732;52.248;-0.844;2023-06-14T03:13:18;100900.36;;;12.48;73.02
62926;BME280;55732;52.248;-0.844;2023-06-14T03:15:46;100897.89;;;12.44;72.96
62926;BME280;55732;52.248;-0.844;2023-06-14T03:18:13;100893.13;;;12.41;73.04
62926;BME280;55732;52.248;-0.844;2023-06-14T03:20:40;100893.86;;;12.39;72.90
62926;BME280;55732;52.248;-0.844;2023-06-14T03:23:06;100899.52;;;12.38;72.91
62926;BME280;55732;52.248;-0.844;2023-06-14T03:25:32;100906.05;;;12.38;72.69
62926;BME280;55732;52.248;-0.844;2023-06-14T03:28:01;100904.10;;;12.39;72.78
62926;BME280;55732;52.248;-0.844;2023-06-14T03:30:27;100906.20;;;12.39;72.58
62926;BME280;55732;52.248;-0.844;2023-06-14T03:32:52;100903.41;;;12.38;72.65
62926;BME280;55732;52.248;-0.844;2023-06-14T03:35:21;100904.82;;;12.36;72.69
62926;BME280;55732;52.248;-0.844;2023-06-14T03:37:47;100904.11;;;12.34;72.75
62926;BME280;55732;52.248;-0.844;2023-06-14T03:40:14;100902.34;;;12.32;72.90
62926;BME280;55732;52.248;-0.844;2023-06-14T03:42:40;100904.30;;;12.28;72.74
62926;BME280;55732;52.248;-0.844;2023-06-14T03:45:06;100906.77;;;12.27;72.95
62926;BME280;55732;52.248;-0.844;2023-06-14T03:47:33;100913.50;;;12.27;73.24
62926;BME280;55732;52.248;-0.844;2023-06-14T03:49:59;100913.16;;;12.26;72.99
62926;BME280;55732;52.248;-0.844;2023-06-14T03:52:26;100912.45;;;12.25;72.96
62926;BME280;55732;52.248;-0.844;2023-06-14T03:54:52;100914.92;;;12.21;72.82
62926;BME280;55732;52.248;-0.844;2023-06-14T03:57:18;100914.39;;;12.19;72.92
62926;BME280;55732;52.248;-0.844;2023-06-14T03:59:43;100914.92;;;12.19;72.80
62926;BME280;55732;52.248;-0.844;2023-06-14T04:02:09;100917.56;;;12.19;72.67
62926;BME280;55732;52.248;-0.844;2023-06-14T04:04:35;100914.39;;;12.19;72.76
62926;BME280;55732;52.248;-0.844;2023-06-14T04:07:01;100917.21;;;12.18;72.76
62926;BME280;55732;52.248;-0.844;2023-06-14T04:09:28;100914.91;;;12.18;72.70
62926;BME280;55732;52.248;-0.844;2023-06-14T04:11:54;100920.39;;;12.19;72.76
62926;BME280;55732;52.248;-0.844;2023-06-14T04:14:20;100919.51;;;12.20;72.73
62926;BME280;55732;52.248;-0.844;2023-06-14T04:16:46;100911.39;;;12.22;72.82
62926;BME280;55732;52.248;-0.844;2023-06-14T04:19:12;100915.27;;;12.27;72.89
62926;BME280;55732;52.248;-0.844;2023-06-14T04:21:37;100914.54;;;12.35;72.82
62926;BME280;55732;52.248;-0.844;2023-06-14T04:24:03;100917.50;;;12.42;72.51
62926;BME280;55732;52.248;-0.844;2023-06-14T04:26:29;100921.37;;;12.48;72.37
62926;BME280;55732;52.248;-0.844;2023-06-14T04:28:55;100919.39;;;12.56;72.15
62926;BME280;55732;52.248;-0.844;2023-06-14T04:31:23;100918.29;;;12.66;72.22
62926;BME280;55732;52.248;-0.844;2023-06-14T04:33:51;100918.52;;;12.90;71.71
62926;BME280;55732;52.248;-0.844;2023-06-14T04:36:18;100911.58;;;13.72;70.55
62926;BME280;55732;52.248;-0.844;2023-06-14T04:38:44;100912.23;;;14.64;68.94
62926;BME280;55732;52.248;-0.844;2023-06-14T04:41:11;100904.73;;;15.20;67.31
62926;BME280;55732;52.248;-0.844;2023-06-14T04:43:37;100897.66;;;15.85;65.71
62926;BME280;55732;52.248;-0.844;2023-06-14T04:46:05;100901.43;;;16.39;64.30
62926;BME280;55732;52.248;-0.844;2023-06-14T04:48:31;100895.73;;;17.37;62.19
62926;BME280;55732;52.248;-0.844;2023-06-14T04:50:57;100896.96;;;17.67;60.94
62926;BME280;55732;52.248;-0.844;2023-06-14T04:53:23;100903.70;;;17.53;60.93
62926;BME280;55732;52.248;-0.844;2023-06-14T04:55:48;100901.02;;;17.76;60.06
62926;BME280;55732;52.248;-0.844;2023-06-14T04:58:16;100903.30;;;17.97;59.60
62926;BME280;55732;52.248;-0.844;2023-06-14T05:00:41;100906.14;;;18.68;58.24
62926;BME280;55732;52.248;-0.844;2023-06-14T05:03:09;100907.16;;;19.61;56.55
62926;BME280;55732;52.248;-0.844;2023-06-14T05:05:34;100911.88;;;19.76;55.58
62926;BME280;55732;52.248;-0.844;2023-06-14T05:08:00;100910.16;;;19.41;55.70
62926;BME280;55732;52.248;-0.844;2023-06-14T05:10:25;100911.70;;;19.03;55.73
62926;BME280;55732;52.248;-0.844;2023-06-14T05:12:51;100909.33;;;18.63;56.40
62926;BME280;55732;52.248;-0.844;2023-06-14T05:15:18;100908.16;;;18.28;56.66
62926;BME280;55732;52.248;-0.844;2023-06-14T05:17:45;100907.51;;;17.86;57.51
62926;BME280;55732;52.248;-0.844;2023-06-14T05:20:18;100915.83;;;17.60;58.16
62926;BME280;55732;52.248;-0.844;2023-06-14T05:22:43;100913.26;;;17.26;58.95
62926;BME280;55732;52.248;-0.844;2023-06-14T05:25:09;100922.05;;;17.00;59.53
62926;BME280;55732;52.248;-0.844;2023-06-14T05:27:34;100918.13;;;16.75;60.35
62926;BME280;55732;52.248;-0.844;2023-06-14T05:30:01;100917.16;;;16.52;61.09
62926;BME280;55732;52.248;-0.844;2023-06-14T05:32:26;100918.73;;;16.35;61.84
62926;BME280;55732;52.248;-0.844;2023-06-14T05:34:51;100919.52;;;16.23;62.56
62926;BME280;55732;52.248;-0.844;2023-06-14T05:37:17;100916.52;;;16.21;63.19
62926;BME280;55732;52.248;-0.844;2023-06-14T05:39:43;100911.14;;;16.24;63.26
62926;BME280;55732;52.248;-0.844;2023-06-14T05:42:08;100909.08;;;16.30;63.40
62926;BME280;55732;52.248;-0.844;2023-06-14T05:44:33;100913.63;;;16.43;63.43
62926;BME280;55732;52.248;-0.844;2023-06-14T05:46:59;100914.35;;;16.86;63.03
62926;BME280;55732;52.248;-0.844;2023-06-14T05:49:24;100910.43;;;17.54;62.09
62926;BME280;55732;52.248;-0.844;2023-06-14T05:51:50;100911.02;;;18.28;60.59
62926;BME280;55732;52.248;-0.844;2023-06-14T05:54:16;100910.08;;;18.49;60.01
62926;BME280;55732;52.248;-0.844;2023-06-14T05:56:42;100906.95;;;18.40;59.98
62926;BME280;55732;52.248;-0.844;2023-06-14T05:59:07;100903.68;;;18.16;60.41
62926;BME280;55732;52.248;-0.844;2023-06-14T06:01:32;100903.10;;;17.85;61.23
62926;BME280;55732;52.248;-0.844;2023-06-14T06:03:59;100904.79;;;17.68;61.87
62926;BME280;55732;52.248;-0.844;2023-06-14T06:06:24;100906.42;;;17.58;62.35
62926;BME280;55732;52.248;-0.844;2023-06-14T06:08:50;100907.94;;;17.76;62.38
62926;BME280;55732;52.248;-0.844;2023-06-14T06:11:15;100909.80;;;18.27;61.71
62926;BME280;55732;52.248;-0.844;2023-06-14T06:13:41;100908.67;;;18.80;60.81
62926;BME280;55732;52.248;-0.844;2023-06-14T06:16:06;100911.82;;;18.99;60.30
62926;BME280;55732;52.248;-0.844;2023-06-14T06:18:31;100909.09;;;19.18;59.82
62926;BME280;55732;52.248;-0.844;2023-06-14T06:20:57;100913.20;;;19.34;59.98
62926;BME280;55732;52.248;-0.844;2023-06-14T06:23:22;100912.56;;;19.38;59.72
62926;BME280;55732;52.248;-0.844;2023-06-14T06:25:49;100910.48;;;19.30;59.75
62926;BME280;55732;52.248;-0.844;2023-06-14T06:28:14;100913.27;;;19.16;59.98
62926;BME280;55732;52.248;-0.844;2023-06-14T06:30:40;100914.38;;;19.15;60.01
62926;BME280;55732;52.248;-0.844;2023-06-14T06:33:05;100916.11;;;19.16;59.84
62926;BME280;55732;52.248;-0.844;2023-06-14T06:35:31;100917.11;;;19.08;60.27
62926;BME280;55732;52.248;-0.844;2023-06-14T06:37:58;100916.81;;;18.88;60.81
62926;BME280;55732;52.248;-0.844;2023-06-14T06:40:24;100921.09;;;18.76;61.22
62926;BME280;55732;52.248;-0.844;2023-06-14T06:42:49;100920.27;;;18.67;61.47
62926;BME280;55732;52.248;-0.844;2023-06-14T06:45:15;100919.46;;;18.58;61.75
62926;BME280;55732;52.248;-0.844;2023-06-14T06:47:40;100923.47;;;18.54;61.82
62926;BME280;55732;52.248;-0.844;2023-06-14T06:50:06;100922.23;;;18.54;62.17
62926;BME280;55732;52.248;-0.844;2023-06-14T06:52:33;100925.44;;;18.54;62.36
62926;BME280;55732;52.248;-0.844;2023-06-14T06:54:59;100927.07;;;18.60;62.23
62926;BME280;55732;52.248;-0.844;2023-06-14T06:57:24;100926.43;;;18.70;62.03
62926;BME280;55732;52.248;-0.844;2023-06-14T06:59:49;100922.18;;;18.93;61.67
62926;BME280;55732;52.248;-0.844;2023-06-14T07:02:15;100923.31;;;19.59;60.60
62926;BME280;55732;52.248;-0.844;2023-06-14T07:04:41;100922.41;;;20.37;58.87
62926;BME280;55732;52.248;-0.844;2023-06-14T07:07:06;100926.36;;;21.22;56.89
62926;BME280;55732;52.248;-0.844;2023-06-14T07:09:32;100921.25;;;21.43;56.23
62926;BME280;55732;52.248;-0.844;2023-06-14T07:11:57;100929.05;;;21.18;55.95
62926;BME280;55732;52.248;-0.844;2023-06-14T07:14:22;100934.13;;;20.79;56.59
62926;BME280;55732;52.248;-0.844;2023-06-14T07:16:49;100937.60;;;20.48;57.08
62926;BME280;55732;52.248;-0.844;2023-06-14T07:19:14;100932.31;;;20.41;57.73
62926;BME280;55732;52.248;-0.844;2023-06-14T07:21:41;100934.01;;;20.44;57.63
62926;BME280;55732;52.248;-0.844;2023-06-14T07:24:06;100937.04;;;20.29;57.94
62926;BME280;55732;52.248;-0.844;2023-06-14T07:26:33;100937.98;;;20.12;58.11
62926;BME280;55732;52.248;-0.844;2023-06-14T07:28:58;100936.89;;;20.02;58.52
62926;BME280;55732;52.248;-0.844;2023-06-14T07:31:23;100942.73;;;20.78;57.37
62926;BME280;55732;52.248;-0.844;2023-06-14T07:33:49;100937.96;;;21.55;55.84
62926;BME280;55732;52.248;-0.844;2023-06-14T07:36:14;100934.29;;;21.83;55.05
62926;BME280;55732;52.248;-0.844;2023-06-14T07:38:39;100939.34;;;21.74;55.33
62926;BME280;55732;52.248;-0.844;2023-06-14T07:41:06;100936.59;;;21.49;55.72
62926;BME280;55732;52.248;-0.844;2023-06-14T07:43:31;100937.45;;;21.33;56.18
62926;BME280;55732;52.248;-0.844;2023-06-14T07:45:57;100946.39;;;21.24;56.50
62926;BME280;55732;52.248;-0.844;2023-06-14T07:48:22;100945.27;;;21.43;56.54
62926;BME280;55732;52.248;-0.844;2023-06-14T07:50:48;100942.95;;;21.78;55.07
62926;BME280;55732;52.248;-0.844;2023-06-14T07:53:13;100943.09;;;21.82;54.75
62926;BME280;55732;52.248;-0.844;2023-06-14T07:55:38;100947.20;;;21.78;54.92
62926;BME280;55732;52.248;-0.844;2023-06-14T07:58:06;100945.59;;;21.79;54.47
62926;BME280;55732;52.248;-0.844;2023-06-14T08:00:32;100945.23;;;21.74;54.43
62926;BME280;55732;52.248;-0.844;2023-06-14T08:02:57;100944.98;;;21.76;54.57
62926;BME280;55732;52.248;-0.844;2023-06-14T08:05:28;100940.07;;;22.03;54.36
62926;BME280;55732;52.248;-0.844;2023-06-14T08:07:54;100946.73;;;22.83;52.97
62926;BME280;55732;52.248;-0.844;2023-06-14T08:10:20;100942.62;;;23.98;50.81
62926;BME280;55732;52.248;-0.844;2023-06-14T08:12:46;100948.64;;;24.62;49.24
62926;BME280;55732;52.248;-0.844;2023-06-14T08:15:12;100949.70;;;24.86;48.49
62926;BME280;55732;52.248;-0.844;2023-06-14T08:17:37;100945.89;;;25.09;47.52
62926;BME280;55732;52.248;-0.844;2023-06-14T08:20:03;100951.89;;;25.44;47.69
62926;BME280;55732;52.248;-0.844;2023-06-14T08:22:30;100950.13;;;25.77;46.76
62926;BME280;55732;52.248;-0.844;2023-06-14T08:24:59;100950.77;;;26.44;45.18
62926;BME280;55732;52.248;-0.844;2023-06-14T08:27:26;100951.05;;;27.59;43.17
62926;BME280;55732;52.248;-0.844;2023-06-14T08:29:51;100947.17;;;29.01;40.77
62926;BME280;55732;52.248;-0.844;2023-06-14T08:32:17;100946.40;;;30.42;39.07
62926;BME280;55732;52.248;-0.844;2023-06-14T08:34:42;100948.36;;;31.66;36.38
62926;BME280;55732;52.248;-0.844;2023-06-14T08:37:08;100944.69;;;31.90;36.43
62926;BME280;55732;52.248;-0.844;2023-06-14T08:39:33;100948.34;;;32.05;35.94
62926;BME280;55732;52.248;-0.844;2023-06-14T08:42:01;100947.97;;;31.86;35.97
62926;BME280;55732;52.248;-0.844;2023-06-14T08:44:27;100952.18;;;31.80;35.27
62926;BME280;55732;52.248;-0.844;2023-06-14T08:46:55;100950.94;;;31.77;34.80
62926;BME280;55732;52.248;-0.844;2023-06-14T08:49:22;100947.32;;;32.00;35.05
62926;BME280;55732;52.248;-0.844;2023-06-14T08:51:48;100949.34;;;33.10;33.23
62926;BME280;55732;52.248;-0.844;2023-06-14T08:54:17;100944.64;;;34.39;31.51
62926;BME280;55732;52.248;-0.844;2023-06-14T08:56:46;100947.35;;;35.48;30.11
62926;BME280;55732;52.248;-0.844;2023-06-14T08:59:13;100947.78;;;36.14;28.70
62926;BME280;55732;52.248;-0.844;2023-06-14T09:01:40;100949.33;;;36.76;28.30
62926;BME280;55732;52.248;-0.844;2023-06-14T09:04:05;100955.87;;;37.39;26.74
62926;BME280;55732;52.248;-0.844;2023-06-14T09:06:31;100953.45;;;37.92;26.85
62926;BME280;55732;52.248;-0.844;2023-06-14T09:08:58;100948.64;;;38.40;25.60
62926;BME280;55732;52.248;-0.844;2023-06-14T09:11:24;100953.52;;;38.72;25.43
62926;BME280;55732;52.248;-0.844;2023-06-14T09:13:52;100954.39;;;39.53;25.25
62926;BME280;55732;52.248;-0.844;2023-06-14T09:16:17;100951.34;;;40.27;24.49
62926;BME280;55732;52.248;-0.844;2023-06-14T09:18:45;100960.33;;;40.66;23.46
62926;BME280;55732;52.248;-0.844;2023-06-14T09:21:14;100958.13;;;40.68;23.49
62926;BME280;55732;52.248;-0.844;2023-06-14T09:23:44;100960.79;;;40.93;23.30
62926;BME280;55732;52.248;-0.844;2023-06-14T09:26:11;100954.66;;;41.26;23.06
62926;BME280;55732;52.248;-0.844;2023-06-14T09:28:42;100957.34;;;41.66;22.35
62926;BME280;55732;52.248;-0.844;2023-06-14T09:31:10;100955.48;;;41.71;21.57
62926;BME280;55732;52.248;-0.844;2023-06-14T09:33:36;100954.12;;;41.64;21.58
62926;BME280;55732;52.248;-0.844;2023-06-14T09:36:02;100955.98;;;41.51;21.67
62926;BME280;55732;52.248;-0.844;2023-06-14T09:38:27;100957.18;;;41.45;21.70
62926;BME280;55732;52.248;-0.844;2023-06-14T09:40:56;100961.17;;;41.08;21.12
62926;BME280;55732;52.248;-0.844;2023-06-14T09:43:23;100957.69;;;40.66;22.00
62926;BME280;55732;52.248;-0.844;2023-06-14T09:45:50;100953.37;;;40.55;21.97
62926;BME280;55732;52.248;-0.844;2023-06-14T09:48:17;100954.23;;;40.58;22.21
62926;BME280;55732;52.248;-0.844;2023-06-14T09:50:50;100954.60;;;40.57;21.91
62926;BME280;55732;52.248;-0.844;2023-06-14T09:53:20;100953.48;;;40.27;21.95
62926;BME280;55732;52.248;-0.844;2023-06-14T09:55:50;100957.65;;;39.98;22.25
62926;BME280;55732;52.248;-0.844;2023-06-14T09:58:19;100957.27;;;39.85;22.17
62926;BME280;55732;52.248;-0.844;2023-06-14T10:00:47;100951.56;;;39.89;22.70
62926;BME280;55732;52.248;-0.844;2023-06-14T10:03:24;100955.11;;;40.19;22.38
62926;BME280;55732;52.248;-0.844;2023-06-14T10:05:51;100954.79;;;40.08;22.38
62926;BME280;55732;52.248;-0.844;2023-06-14T10:08:23;100953.84;;;39.70;22.53
62926;BME280;55732;52.248;-0.844;2023-06-14T10:10:51;100956.45;;;39.54;22.99
62926;BME280;55732;52.248;-0.844;2023-06-14T10:13:16;100953.30;;;39.29;23.04
62926;BME280;55732;52.248;-0.844;2023-06-14T10:18:19;100948.77;;;39.15;23.40
62926;BME280;55732;52.248;-0.844;2023-06-14T10:21:04;100945.46;;;38.74;23.71
62926;BME280;55732;52.248;-0.844;2023-06-14T10:23:37;100944.27;;;38.23;24.18
62926;BME280;55732;52.248;-0.844;2023-06-14T10:26:03;100949.05;;;37.32;25.17
62926;BME280;55732;52.248;-0.844;2023-06-14T10:28:28;100950.30;;;35.91;26.50
62926;BME280;55732;52.248;-0.844;2023-06-14T10:33:31;100947.87;;;33.36;29.71
62926;BME280;55732;52.248;-0.844;2023-06-14T10:36:09;100949.48;;;32.40;30.71
62926;BME280;55732;52.248;-0.844;2023-06-14T10:38:36;100955.31;;;31.30;32.25
62926;BME280;55732;52.248;-0.844;2023-06-14T10:41:04;100947.97;;;30.57;33.32
62926;BME280;55732;52.248;-0.844;2023-06-14T10:43:30;100946.72;;;30.01;34.52
62926;BME280;55732;52.248;-0.844;2023-06-14T10:46:25;100954.70;;;29.53;35.22
62926;BME280;55732;52.248;-0.844;2023-06-14T10:48:57;100953.92;;;29.04;36.23
62926;BME280;55732;52.248;-0.844;2023-06-14T10:51:22;100956.67;;;28.76;36.91
62926;BME280;55732;52.248;-0.844;2023-06-14T10:53:49;100951.54;;;28.46;37.26
62926;BME280;55732;52.248;-0.844;2023-06-14T10:56:27;100950.91;;;28.26;37.61
62926;BME280;55732;52.248;-0.844;2023-06-14T10:58:53;100944.14;;;28.05;38.18
62926;BME280;55732;52.248;-0.844;2023-06-14T11:01:36;100944.52;;;27.97;38.25
62926;BME280;55732;52.248;-0.844;2023-06-14T11:04:10;100936.58;;;27.92;38.31
62926;BME280;55732;52.248;-0.844;2023-06-14T11:06:46;100938.70;;;28.04;38.24
62926;BME280;55732;52.248;-0.844;2023-06-14T11:11:48;100941.53;;;27.88;37.69
62926;BME280;55732;52.248;-0.844;2023-06-14T11:14:16;100943.27;;;27.73;37.79
62926;BME280;55732;52.248;-0.844;2023-06-14T11:16:48;100938.21;;;27.62;37.63
62926;BME280;55732;52.248;-0.844;2023-06-14T11:19:13;100932.04;;;27.57;38.17
62926;BME280;55732;52.248;-0.844;2023-06-14T11:21:41;100931.71;;;27.60;37.94
62926;BME280;55732;52.248;-0.844;2023-06-14T11:24:10;100927.50;;;27.61;38.30
62926;BME280;55732;52.248;-0.844;2023-06-14T11:26:37;100929.70;;;27.71;38.30
62926;BME280;55732;52.248;-0.844;2023-06-14T11:29:03;100925.77;;;27.81;37.91
62926;BME280;55732;52.248;-0.844;2023-06-14T11:31:29;100927.20;;;27.81;37.87
62926;BME280;55732;52.248;-0.844;2023-06-14T11:33:59;100924.75;;;27.85;37.95
62926;BME280;55732;52.248;-0.844;2023-06-14T11:36:29;100925.84;;;27.85;37.78
62926;BME280;55732;52.248;-0.844;2023-06-14T11:38:59;100923.25;;;27.85;37.64
62926;BME280;55732;52.248;-0.844;2023-06-14T11:41:25;100921.23;;;27.81;37.78
62926;BME280;55732;52.248;-0.844;2023-06-14T11:43:54;100917.80;;;27.78;37.70
62926;BME280;55732;52.248;-0.844;2023-06-14T11:46:19;100918.44;;;27.79;37.54
62926;BME280;55732;52.248;-0.844;2023-06-14T11:48:49;100919.88;;;27.85;37.53
62926;BME280;55732;52.248;-0.844;2023-06-14T11:51:14;100915.99;;;27.81;37.12
62926;BME280;55732;52.248;-0.844;2023-06-14T11:53:42;100913.15;;;27.77;36.83
62926;BME280;55732;52.248;-0.844;2023-06-14T11:56:08;100908.21;;;27.75;37.34
62926;BME280;55732;52.248;-0.844;2023-06-14T11:58:33;100905.70;;;27.91;37.64
62926;BME280;55732;52.248;-0.844;2023-06-14T12:00:59;100904.41;;;28.12;37.66
62926;BME280;55732;52.248;-0.844;2023-06-14T12:03:25;100908.64;;;28.25;36.75
62926;BME280;55732;52.248;-0.844;2023-06-14T12:06:05;100915.02;;;28.27;36.34
62926;BME280;55732;52.248;-0.844;2023-06-14T12:08:35;100915.66;;;28.28;35.90
62926;BME280;55732;52.248;-0.844;2023-06-14T12:11:04;100919.56;;;28.26;36.06
62926;BME280;55732;52.248;-0.844;2023-06-14T12:13:29;100913.36;;;28.27;36.15
62926;BME280;55732;52.248;-0.844;2023-06-14T12:15:58;100910.52;;;28.32;36.10
62926;BME280;55732;52.248;-0.844;2023-06-14T12:18:34;100908.51;;;28.39;36.56
62926;BME280;55732;52.248;-0.844;2023-06-14T12:21:00;100906.16;;;28.54;35.75
62926;BME280;55732;52.248;-0.844;2023-06-14T12:26:07;100908.66;;;28.65;35.61
62926;BME280;55732;52.248;-0.844;2023-06-14T12:28:32;100906.01;;;28.56;35.74
62926;BME280;55732;52.248;-0.844;2023-06-14T12:30:58;100909.02;;;28.57;35.40
62926;BME280;55732;52.248;-0.844;2023-06-14T12:33:24;100909.07;;;28.57;35.11
62926;BME280;55732;52.248;-0.844;2023-06-14T12:35:53;100904.80;;;28.56;35.09
62926;BME280;55732;52.248;-0.844;2023-06-14T12:38:20;100907.46;;;28.56;35.49
62926;BME280;55732;52.248;-0.844;2023-06-14T12:40:46;100903.98;;;28.62;35.46
62926;BME280;55732;52.248;-0.844;2023-06-14T12:43:12;100899.83;;;28.78;35.72
62926;BME280;55732;52.248;-0.844;2023-06-14T12:45:37;100897.39;;;28.91;35.31
62926;BME280;55732;52.248;-0.844;2023-06-14T12:48:02;100900.94;;;28.97;35.32
62926;BME280;55732;52.248;-0.844;2023-06-14T12:50:28;100901.02;;;29.01;33.91
62926;BME280;55732;52.248;-0.844;2023-06-14T12:52:53;100902.71;;;28.90;32.99